createdAt,value
2019-05-29T00:01:32.485Z,9.36
2019-05-29T00:04:01.976Z,9.36
2019-05-29T00:06:31.448Z,9.41
2019-05-29T00:09:00.931Z,9.19
2019-05-29T00:11:30.423Z,9.40
2019-05-29T00:13:59.910Z,9.33
2019-05-29T00:16:29.381Z,9.21
2019-05-29T00:18:58.878Z,9.48
2019-05-29T00:21:28.363Z,9.60
2019-05-29T00:23:57.844Z,9.25
2019-05-29T00:26:27.495Z,9.23
2019-05-29T00:28:57.814Z,9.36
2019-05-29T00:31:27.307Z,9.36
2019-05-29T00:33:56.784Z,9.35
2019-05-29T00:36:26.267Z,9.14
2019-05-29T00:38:55.749Z,9.19
2019-05-29T00:41:25.239Z,9.25
2019-05-29T00:43:54.709Z,9.47
2019-05-29T00:46:24.194Z,9.30
2019-05-29T00:48:53.665Z,9.16
2019-05-29T00:51:23.171Z,9.54
2019-05-29T00:53:52.648Z,9.37
2019-05-29T00:56:22.188Z,9.50
2019-05-29T00:58:51.678Z,9.38
2019-05-29T01:01:22.306Z,9.45
2019-05-29T01:03:52.539Z,9.41
2019-05-29T01:06:22.031Z,9.36
2019-05-29T01:08:51.566Z,9.20
2019-05-29T01:11:21.122Z,9.17
2019-05-29T01:13:50.608Z,9.32
2019-05-29T01:16:20.167Z,9.36
2019-05-29T01:18:49.655Z,9.34
2019-05-29T01:21:20.132Z,9.23
2019-05-29T01:23:49.591Z,9.22
2019-05-29T01:26:19.081Z,9.16
2019-05-29T01:28:48.588Z,8.96
2019-05-29T01:31:19.301Z,9.12
2019-05-29T01:33:48.800Z,9.03
2019-05-29T01:36:18.281Z,9.04
2019-05-29T01:38:47.774Z,9.18
2019-05-29T01:41:17.267Z,9.00
2019-05-29T01:43:46.757Z,9.23
2019-05-29T01:46:17.234Z,9.18
2019-05-29T01:48:46.708Z,9.34
2019-05-29T01:51:17.408Z,9.48
2019-05-29T01:53:46.939Z,9.10
2019-05-29T01:56:17.587Z,9.27
2019-05-29T01:58:47.084Z,9.27
2019-05-29T02:01:17.931Z,9.44
2019-05-29T02:03:48.495Z,9.16
2019-05-29T02:06:17.986Z,9.14
2019-05-29T02:08:47.450Z,9.06
2019-05-29T02:11:17.146Z,9.28
2019-05-29T02:13:46.615Z,9.37
2019-05-29T02:16:16.673Z,9.42
2019-05-29T02:18:46.167Z,9.40
2019-05-29T02:21:15.955Z,9.23
2019-05-29T02:23:45.412Z,9.34
2019-05-29T02:26:16.027Z,9.33
2019-05-29T02:28:45.929Z,9.29
2019-05-29T02:31:17.449Z,9.27
2019-05-29T02:33:46.625Z,9.22
2019-05-29T02:36:16.102Z,9.27
2019-05-29T02:38:45.589Z,9.24
2019-05-29T02:41:15.080Z,9.24
2019-05-29T02:43:44.561Z,9.08
2019-05-29T02:46:14.046Z,9.10
2019-05-29T02:48:43.532Z,9.21
2019-05-29T02:51:13.378Z,9.19
2019-05-29T02:53:42.846Z,9.18
2019-05-29T02:56:12.351Z,9.06
2019-05-29T02:58:41.813Z,9.12
2019-05-29T03:01:11.367Z,9.11
2019-05-29T03:03:40.854Z,9.35
2019-05-29T03:06:10.468Z,9.05
2019-05-29T03:08:40.045Z,9.48
2019-05-29T03:11:09.850Z,9.44
2019-05-29T03:13:39.416Z,9.05
2019-05-29T03:16:12.250Z,9.11
2019-05-29T03:18:40.100Z,9.34
2019-05-29T03:21:09.873Z,9.47
2019-05-29T03:23:39.349Z,9.11
2019-05-29T03:26:08.825Z,9.15
2019-05-29T03:28:38.522Z,9.44
2019-05-29T03:31:07.986Z,9.39
2019-05-29T03:33:45.081Z,9.46
2019-05-29T03:36:09.285Z,9.30
2019-05-29T03:38:38.772Z,9.27
2019-05-29T03:41:08.267Z,9.08
2019-05-29T03:43:38.725Z,9.15
2019-05-29T03:46:26.591Z,9.46
2019-05-29T03:48:39.508Z,9.15
2019-05-29T03:51:09.014Z,9.27
2019-05-29T03:53:38.619Z,9.53
2019-05-29T03:56:08.048Z,9.45
2019-05-29T03:58:37.919Z,9.49
2019-05-29T04:01:08.197Z,9.32
2019-05-29T04:03:38.413Z,9.14
2019-05-29T04:06:08.049Z,9.13
2019-05-29T04:08:38.333Z,9.08
2019-05-29T04:11:08.550Z,9.03
2019-05-29T04:13:38.919Z,9.06
2019-05-29T04:16:10.043Z,9.15
2019-05-29T04:18:40.705Z,9.43
2019-05-29T04:21:10.954Z,9.26
2019-05-29T04:23:43.086Z,9.69
2019-05-29T04:26:16.087Z,9.70
2019-05-29T04:28:45.978Z,9.76
2019-05-29T04:31:16.288Z,9.58
2019-05-29T04:33:45.799Z,9.68
2019-05-29T04:36:15.276Z,9.58
2019-05-29T04:38:44.781Z,9.77
2019-05-29T04:41:14.283Z,9.60
2019-05-29T04:43:44.594Z,9.58
2019-05-29T04:46:14.063Z,9.58
2019-05-29T04:48:43.529Z,9.56
2019-05-29T04:51:13.041Z,9.62
2019-05-29T04:53:42.543Z,9.63
2019-05-29T04:56:12.066Z,9.49
2019-05-29T04:58:41.606Z,9.54
2019-05-29T05:01:11.075Z,9.82
2019-05-29T05:03:40.556Z,9.86
2019-05-29T05:06:10.045Z,9.82
2019-05-29T05:08:40.901Z,9.60
2019-05-29T05:11:11.210Z,9.54
2019-05-29T05:13:40.777Z,9.70
2019-05-29T05:16:10.276Z,9.74
2019-05-29T05:18:40.219Z,9.71
2019-05-29T05:21:09.816Z,9.67
2019-05-29T05:23:40.579Z,9.64
2019-05-29T05:26:10.425Z,9.90
2019-05-29T05:28:43.467Z,9.86
2019-05-29T05:31:11.104Z,9.82
2019-05-29T05:33:41.073Z,9.88
2019-05-29T05:36:11.022Z,9.92
2019-05-29T05:38:41.143Z,9.91
2019-05-29T05:41:10.775Z,9.96
2019-05-29T05:43:41.367Z,10.03
2019-05-29T05:46:11.038Z,10.21
2019-05-29T05:48:41.499Z,10.37
2019-05-29T05:51:11.248Z,10.39
2019-05-29T05:53:41.766Z,10.56
2019-05-29T05:56:11.537Z,10.53
2019-05-29T05:58:42.170Z,10.57
2019-05-29T06:01:12.211Z,10.63
2019-05-29T06:03:42.786Z,10.70
2019-05-29T06:06:12.524Z,10.76
2019-05-29T06:08:42.529Z,11.01
2019-05-29T06:11:12.191Z,11.02
2019-05-29T06:13:42.752Z,11.00
2019-05-29T06:16:12.443Z,11.16
2019-05-29T06:18:43.016Z,11.10
2019-05-29T06:21:12.837Z,11.22
2019-05-29T06:23:43.442Z,11.26
2019-05-29T06:26:13.445Z,11.35
2019-05-29T06:28:43.547Z,11.44
2019-05-29T06:31:13.217Z,11.45
2019-05-29T06:33:43.981Z,11.41
2019-05-29T06:36:13.679Z,11.35
2019-05-29T06:38:44.348Z,11.33
2019-05-29T06:41:14.373Z,11.55
2019-05-29T06:43:44.306Z,11.51
2019-05-29T06:46:14.147Z,11.73
2019-05-29T06:48:56.346Z,11.98
2019-05-29T06:51:14.836Z,12.04
2019-05-29T06:53:44.366Z,12.43
2019-05-29T06:56:14.162Z,12.42
2019-05-29T06:58:44.458Z,12.29
2019-05-29T07:01:14.036Z,12.38
2019-05-29T07:03:43.959Z,12.25
2019-05-29T07:06:13.657Z,11.92
2019-05-29T07:08:47.562Z,11.78
2019-05-29T07:11:14.344Z,11.94
2019-05-29T07:13:47.626Z,12.36
2019-05-29T07:16:15.057Z,13.24
2019-05-29T07:19:22.391Z,12.99
2019-05-29T07:21:15.790Z,12.97
2019-05-29T07:23:47.918Z,12.74
2019-05-29T07:26:16.495Z,12.85
2019-05-29T07:29:03.015Z,12.73
2019-05-29T07:31:17.282Z,12.57
2019-05-29T07:33:47.418Z,12.58
2019-05-29T07:36:16.951Z,13.63
2019-05-29T07:39:00.975Z,14.97
2019-05-29T07:41:18.767Z,15.25
2019-05-29T07:43:48.276Z,14.65
2019-05-29T07:46:17.761Z,14.39
2019-05-29T07:48:48.553Z,14.12
2019-05-29T07:51:18.554Z,13.56
2019-05-29T07:53:48.774Z,13.25
2019-05-29T07:56:22.673Z,13.07
2019-05-29T07:59:01.606Z,12.54
2019-05-29T08:01:20.990Z,12.31
2019-05-29T08:03:50.515Z,12.54
2019-05-29T08:06:20.025Z,12.86
2019-05-29T08:08:50.181Z,12.93
2019-05-29T08:11:19.688Z,13.28
2019-05-29T08:13:49.987Z,13.58
2019-05-29T08:16:19.561Z,14.13
2019-05-29T08:18:52.744Z,14.61
2019-05-29T08:21:20.352Z,14.33
2019-05-29T08:23:50.773Z,14.06
2019-05-29T08:26:20.407Z,13.86
2019-05-29T08:28:51.196Z,13.57
2019-05-29T08:31:20.821Z,13.65
2019-05-29T08:33:51.291Z,13.77
2019-05-29T08:36:21.044Z,13.92
2019-05-29T08:38:51.815Z,14.29
2019-05-29T08:41:21.476Z,15.11
2019-05-29T08:43:51.053Z,15.05
2019-05-29T08:46:20.553Z,15.12
2019-05-29T08:48:50.192Z,15.40
2019-05-29T08:51:19.703Z,15.29
2019-05-29T08:53:51.904Z,15.79
2019-05-29T08:56:20.430Z,15.58
2019-05-29T08:58:50.677Z,15.91
2019-05-29T09:01:20.384Z,16.21
2019-05-29T09:03:51.184Z,15.96
2019-05-29T09:06:21.419Z,16.11
2019-05-29T09:08:54.092Z,16.71
2019-05-29T09:11:22.216Z,16.72
2019-05-29T09:13:51.687Z,16.93
2019-05-29T09:16:21.310Z,16.25
2019-05-29T09:18:51.344Z,16.41
2019-05-29T09:21:20.854Z,17.16
2019-05-29T09:23:50.404Z,17.10
2019-05-29T09:26:24.204Z,18.44
2019-05-29T09:28:51.146Z,18.30
2019-05-29T09:31:21.935Z,17.26
2019-05-29T09:33:51.715Z,16.07
2019-05-29T09:36:22.606Z,14.97
2019-05-29T09:38:52.263Z,14.69
2019-05-29T09:41:23.371Z,14.83
2019-05-29T09:43:59.103Z,14.62
2019-05-29T09:46:24.230Z,14.79
2019-05-29T09:48:53.713Z,14.70
2019-05-29T09:51:23.210Z,14.67
2019-05-29T09:53:54.342Z,14.40
2019-05-29T09:56:23.916Z,14.37
2019-05-29T09:58:54.308Z,14.69
2019-05-29T10:01:25.659Z,14.63
2019-05-29T10:03:57.153Z,14.55
2019-05-29T10:06:26.574Z,14.37
2019-05-29T10:08:56.335Z,14.55
2019-05-29T10:11:27.126Z,14.58
2019-05-29T10:13:57.373Z,14.79
2019-05-29T10:16:27.904Z,15.73
2019-05-29T10:18:59.531Z,16.43
2019-05-29T10:24:01.239Z,16.62
2019-05-29T10:26:31.058Z,15.88
2019-05-29T10:27:51.689Z,16.96
2019-05-29T10:29:07.917Z,15.58
2019-05-29T10:31:31.840Z,15.25
2019-05-29T10:34:01.347Z,15.10
2019-05-29T10:36:30.822Z,14.86
2019-05-29T10:39:00.318Z,14.89
2019-05-29T10:41:29.820Z,15.15
2019-05-29T10:43:59.308Z,15.20
2019-05-29T10:46:28.848Z,15.88
2019-05-29T10:48:58.349Z,16.38
2019-05-29T10:51:27.851Z,16.40
2019-05-29T10:53:58.839Z,16.74
2019-05-29T10:56:28.785Z,16.65
2019-05-29T10:59:00.154Z,17.19
2019-05-29T11:01:29.651Z,17.53
2019-05-29T11:03:59.169Z,18.13
2019-05-29T11:06:29.434Z,17.97
2019-05-29T11:08:58.937Z,17.38
2019-05-29T11:11:28.428Z,17.18
2019-05-29T11:13:57.985Z,16.16
2019-05-29T11:16:27.483Z,15.59
2019-05-29T11:18:57.781Z,15.40
2019-05-29T11:21:27.235Z,15.15
2019-05-29T11:23:58.054Z,15.08
2019-05-29T11:26:27.775Z,15.21
2019-05-29T11:28:58.615Z,14.77
2019-05-29T11:31:28.343Z,15.19
2019-05-29T11:33:59.098Z,16.00
2019-05-29T11:36:28.758Z,15.66
2019-05-29T11:39:03.213Z,15.60
2019-05-29T11:41:30.148Z,15.82
2019-05-29T11:43:59.627Z,15.87
2019-05-29T11:46:29.135Z,15.10
2019-05-29T11:48:59.360Z,14.59
2019-05-29T11:51:28.904Z,15.05
2019-05-29T11:54:00.059Z,14.87
2019-05-29T11:56:29.532Z,15.39
2019-05-29T11:58:59.138Z,15.92
2019-05-29T12:01:28.693Z,16.22
2019-05-29T12:04:18.104Z,15.88
2019-05-29T12:06:29.511Z,15.62
2019-05-29T12:08:59.826Z,15.77
2019-05-29T12:11:29.342Z,15.63
2019-05-29T12:14:00.507Z,15.28
2019-05-29T12:16:30.048Z,14.53
2019-05-29T12:18:59.920Z,15.00
2019-05-29T12:21:29.440Z,15.81
2019-05-29T12:23:59.184Z,15.48
2019-05-29T12:26:29.607Z,15.48
2019-05-29T12:29:08.435Z,14.88
2019-05-29T12:31:30.315Z,15.14
2019-05-29T12:34:06.651Z,15.08
2019-05-29T12:36:31.149Z,14.74
2019-05-29T12:39:02.191Z,14.73
2019-05-29T12:41:31.857Z,14.37
2019-05-29T12:44:01.695Z,14.83
2019-05-29T12:46:31.285Z,15.09
2019-05-29T12:49:01.718Z,15.55
2019-05-29T12:51:31.277Z,15.62
2019-05-29T12:54:02.325Z,15.30
2019-05-29T12:56:31.914Z,16.36
2019-05-29T12:59:02.654Z,16.25
2019-05-29T13:01:32.288Z,15.44
2019-05-29T13:04:02.385Z,16.31
2019-05-29T13:06:32.495Z,16.50
2019-05-29T13:09:02.638Z,16.15
2019-05-29T13:11:32.158Z,16.24
2019-05-29T13:14:02.700Z,16.44
2019-05-29T13:16:32.455Z,16.79
2019-05-29T13:19:03.424Z,16.68
2019-05-29T13:21:32.985Z,17.06
2019-05-29T13:24:04.016Z,16.31
2019-05-29T13:26:33.702Z,16.53
2019-05-29T13:29:04.147Z,16.34
2019-05-29T13:31:33.791Z,15.91
2019-05-29T13:34:04.355Z,15.28
2019-05-29T13:36:34.948Z,14.65
2019-05-29T13:39:06.466Z,14.48
2019-05-29T13:41:35.969Z,14.43
2019-05-29T13:44:06.989Z,13.89
2019-05-29T13:46:36.581Z,13.72
2019-05-29T13:49:07.156Z,13.66
2019-05-29T13:51:38.160Z,13.80
2019-05-29T13:54:14.013Z,13.84
2019-05-29T13:56:38.945Z,14.03
2019-05-29T13:59:08.563Z,14.53
2019-05-29T14:01:38.066Z,15.00
2019-05-29T14:04:08.667Z,14.95
2019-05-29T14:06:38.245Z,14.58
2019-05-29T14:09:10.734Z,13.76
2019-05-29T14:11:40.238Z,13.55
2019-05-29T14:14:12.941Z,12.49
2019-05-29T14:16:40.952Z,12.12
2019-05-29T14:19:10.522Z,11.93
2019-05-29T14:21:40.012Z,11.36
2019-05-29T14:24:26.273Z,10.59
2019-05-29T14:26:40.724Z,10.04
2019-05-29T14:29:10.280Z,9.17
2019-05-29T14:31:39.754Z,9.42
2019-05-29T14:34:10.024Z,9.62
2019-05-29T14:36:39.481Z,9.86
2019-05-29T14:39:09.966Z,10.05
2019-05-29T14:41:39.606Z,10.15
2019-05-29T14:44:09.998Z,10.33
2019-05-29T14:46:39.656Z,10.46
2019-05-29T14:49:10.481Z,10.50
2019-05-29T14:51:40.520Z,10.64
2019-05-29T14:54:11.055Z,10.80
2019-05-29T14:56:40.654Z,10.86
2019-05-29T14:59:11.147Z,10.93
2019-05-29T15:01:40.789Z,10.86
2019-05-29T15:04:12.648Z,10.76
2019-05-29T15:06:41.499Z,10.89
2019-05-29T15:09:11.775Z,10.59
2019-05-29T15:11:41.300Z,10.77
2019-05-29T15:14:10.824Z,10.83
2019-05-29T15:16:40.308Z,10.80
2019-05-29T15:19:11.019Z,10.77
2019-05-29T15:21:40.519Z,10.86
2019-05-29T15:24:10.019Z,10.94
2019-05-29T15:26:39.512Z,10.87
2019-05-29T15:29:12.655Z,10.79
2019-05-29T15:31:40.239Z,10.79
2019-05-29T15:34:10.295Z,10.60
2019-05-29T15:36:39.894Z,10.54
2019-05-29T15:39:10.641Z,10.46
2019-05-29T15:41:40.218Z,10.36
2019-05-29T15:44:10.841Z,10.20
2019-05-29T15:46:40.399Z,10.15
2019-05-29T15:49:11.137Z,10.44
2019-05-29T15:51:40.767Z,10.50
2019-05-29T15:54:29.668Z,10.39
2019-05-29T15:57:12.907Z,10.43
2019-05-29T15:59:42.509Z,10.39
2019-05-29T16:02:11.993Z,10.44
2019-05-29T16:04:41.496Z,10.53
2019-05-29T16:07:11.909Z,10.36
2019-05-29T16:09:41.509Z,10.25
2019-05-29T16:12:10.991Z,10.31
2019-05-29T16:14:40.488Z,10.28
2019-05-29T16:17:10.978Z,10.06
2019-05-29T16:19:40.503Z,10.35
2019-05-29T16:22:10.319Z,10.35
2019-05-29T16:24:39.865Z,10.31
2019-05-29T16:27:10.564Z,10.35
2019-05-29T16:29:40.131Z,10.21
2019-05-29T16:32:09.764Z,10.38
2019-05-29T16:34:39.343Z,10.30
2019-05-29T16:37:08.828Z,10.34
2019-05-29T16:39:38.330Z,10.43
2019-05-29T16:42:07.818Z,10.28
2019-05-29T16:44:37.309Z,10.23
2019-05-29T16:47:07.748Z,10.29
2019-05-29T16:49:37.236Z,10.17
2019-05-29T16:52:06.807Z,10.41
2019-05-29T16:54:36.293Z,10.54
2019-05-29T16:57:06.324Z,10.38
2019-05-29T16:59:36.008Z,10.52
2019-05-29T17:02:05.602Z,10.40
2019-05-29T17:04:35.076Z,10.67
2019-05-29T17:07:04.745Z,10.82
2019-05-29T17:09:34.228Z,10.69
2019-05-29T17:12:04.667Z,10.83
2019-05-29T17:14:34.293Z,10.80
2019-05-29T17:17:03.803Z,10.73
2019-05-29T17:19:33.338Z,10.51
2019-05-29T17:22:02.813Z,10.58
2019-05-29T17:24:32.655Z,10.66
2019-05-29T17:27:02.138Z,10.59
2019-05-29T17:29:31.642Z,10.63
2019-05-29T17:32:01.391Z,10.66
2019-05-29T17:34:30.968Z,10.63
2019-05-29T17:37:00.497Z,10.46
2019-05-29T17:39:29.956Z,10.26
2019-05-29T17:41:59.448Z,10.24
2019-05-29T17:44:28.926Z,10.17
2019-05-29T17:46:58.425Z,9.89
2019-05-29T17:49:34.447Z,9.84
2019-05-29T17:52:00.420Z,9.64
2019-05-29T17:54:29.963Z,9.48
2019-05-29T17:56:59.593Z,9.39
2019-05-29T17:59:29.076Z,9.33
2019-05-29T18:01:59.809Z,9.29
2019-05-29T18:04:29.288Z,9.24
2019-05-29T18:06:59.017Z,9.58
2019-05-29T18:09:29.325Z,9.56
2019-05-29T18:11:58.844Z,9.54
2019-05-29T18:14:28.485Z,9.51
2019-05-29T18:16:57.981Z,9.46
2019-05-29T18:19:28.184Z,9.59
2019-05-29T18:21:58.182Z,9.23
2019-05-29T18:24:28.120Z,9.29
2019-05-29T18:26:59.185Z,9.45
2019-05-29T18:29:29.658Z,9.68
2019-05-29T18:31:59.289Z,9.64
2019-05-29T18:34:29.631Z,9.53
2019-05-29T18:36:59.221Z,9.41
2019-05-29T18:39:28.720Z,9.40
2019-05-29T18:41:58.213Z,9.42
2019-05-29T18:44:28.875Z,9.47
2019-05-29T18:46:58.440Z,9.40
2019-05-29T18:49:28.600Z,9.29
2019-05-29T18:52:00.462Z,9.30
2019-05-29T18:54:30.028Z,9.28
2019-05-29T18:57:14.360Z,9.29
2019-05-29T18:59:31.765Z,9.10
2019-05-29T19:02:01.357Z,9.12
2019-05-29T19:04:31.875Z,9.07
2019-05-29T19:07:01.612Z,9.13
2019-05-29T19:09:32.026Z,9.40
2019-05-29T19:12:01.540Z,9.37
2019-05-29T19:14:32.405Z,9.36
2019-05-29T19:17:02.083Z,9.29
2019-05-29T19:19:32.511Z,9.37
2019-05-29T19:22:02.138Z,9.33
2019-05-29T19:24:32.820Z,9.24
2019-05-29T19:27:02.369Z,9.15
2019-05-29T19:29:33.132Z,9.09
2019-05-29T19:32:02.805Z,9.15
2019-05-29T19:34:33.528Z,9.15
2019-05-29T19:37:03.153Z,8.97
2019-05-29T19:39:32.647Z,9.03
2019-05-29T19:42:02.393Z,8.89
2019-05-29T19:44:32.418Z,8.89
2019-05-29T19:47:01.938Z,9.16
2019-05-29T19:49:31.416Z,8.99
2019-05-29T19:52:00.885Z,9.00
2019-05-29T19:54:31.555Z,9.47
2019-05-29T19:57:01.070Z,9.53
2019-05-29T19:59:30.553Z,9.46
2019-05-29T20:02:00.124Z,9.47
2019-05-29T20:04:30.529Z,9.47
2019-05-29T20:07:00.045Z,9.21
2019-05-29T20:09:31.255Z,9.15
2019-05-29T20:12:00.938Z,9.05
2019-05-29T20:14:31.683Z,9.39
2019-05-29T20:17:02.491Z,9.22
2019-05-29T20:19:35.607Z,9.21
2019-05-29T20:22:03.180Z,9.28
2019-05-29T20:24:32.835Z,9.03
2019-05-29T20:27:02.331Z,8.98
2019-05-29T20:29:32.365Z,9.42
2019-05-29T20:32:01.887Z,9.28
2019-05-29T20:34:32.768Z,9.21
2019-05-29T20:37:02.250Z,9.27
2019-05-29T20:39:32.957Z,9.28
2019-05-29T20:42:02.773Z,9.35
2019-05-29T20:44:33.062Z,9.30
2019-05-29T20:47:02.520Z,9.04
2019-05-29T20:49:32.045Z,9.09
2019-05-29T20:52:01.486Z,9.08
2019-05-29T20:54:31.598Z,8.95
2019-05-29T20:57:02.802Z,8.86
2019-05-29T20:59:32.336Z,9.32
2019-05-29T21:02:01.816Z,9.26
2019-05-29T21:04:32.925Z,9.05
2019-05-29T21:07:02.473Z,8.95
2019-05-29T21:09:32.934Z,9.04
2019-05-29T21:12:02.452Z,8.86
2019-05-29T21:14:31.943Z,8.84
2019-05-29T21:17:01.607Z,8.82
2019-05-29T21:19:34.007Z,9.13
2019-05-29T21:22:03.592Z,8.98
2019-05-29T21:24:34.534Z,9.07
2019-05-29T21:27:23.501Z,9.08
2019-05-29T21:33:27.651Z,9.04
2019-05-29T21:36:16.459Z,8.88
2019-05-29T21:38:58.386Z,8.96
2019-05-29T21:41:47.228Z,8.89
2019-05-29T21:44:29.407Z,9.05
2019-05-29T21:47:18.252Z,8.87
2019-05-29T21:49:58.607Z,8.71
2019-05-29T21:52:41.534Z,9.10
2019-05-29T21:58:31.436Z,9.15
2019-05-29T22:01:01.126Z,9.08
2019-05-29T22:03:30.728Z,8.94
2019-05-29T22:06:00.260Z,9.08
2019-05-29T22:08:29.739Z,9.18
2019-05-29T22:10:59.653Z,9.09
2019-05-29T22:13:29.208Z,9.07
2019-05-29T22:15:58.933Z,9.00
2019-05-29T22:18:28.391Z,8.75
2019-05-29T22:20:58.741Z,8.96
2019-05-29T22:23:29.314Z,8.57
2019-05-29T22:25:59.455Z,8.45
2019-05-29T22:28:28.967Z,8.40
2019-05-29T22:30:59.475Z,8.64
2019-05-29T22:33:29.026Z,8.86
2019-05-29T22:35:59.501Z,8.91
2019-05-29T22:38:29.035Z,8.81
2019-05-29T22:40:59.682Z,8.86
2019-05-29T22:43:29.200Z,8.83
2019-05-29T22:45:59.722Z,8.80
2019-05-29T22:48:29.273Z,8.52
2019-05-29T22:50:59.923Z,8.41
2019-05-29T22:53:29.490Z,8.54
2019-05-29T22:55:59.941Z,8.76
2019-05-29T22:58:29.541Z,8.51
2019-05-29T23:01:00.017Z,8.37
2019-05-29T23:03:30.086Z,8.25
2019-05-29T23:06:00.401Z,8.26
2019-05-29T23:08:29.954Z,8.54
2019-05-29T23:11:00.385Z,8.24
2019-05-29T23:13:29.920Z,8.13
2019-05-29T23:16:00.663Z,8.09
2019-05-29T23:18:30.261Z,8.10
2019-05-29T23:21:00.606Z,8.18
2019-05-29T23:23:30.097Z,8.37
2019-05-29T23:26:00.685Z,8.12
2019-05-29T23:28:30.236Z,8.05
2019-05-29T23:31:01.009Z,8.03
2019-05-29T23:33:31.086Z,8.09
2019-05-29T23:36:01.206Z,8.39
2019-05-29T23:38:30.733Z,8.55
2019-05-29T23:41:01.415Z,8.53
2019-05-29T23:43:30.962Z,8.66
2019-05-29T23:46:02.263Z,8.63
2019-05-29T23:48:31.657Z,8.73
2019-05-29T23:51:01.737Z,8.66
2019-05-29T23:53:31.190Z,8.80
2019-05-29T23:56:01.789Z,8.59
2019-05-29T23:58:31.359Z,8.70
